Corozal, Belize
Current Conditions -  °F | °C
As of 11:43 AM on Tuesday 21 Oct 2014 (Local Time) from MMCM Reporting Station
Broken Clouds Broken Clouds  
Wind Chill: 84°   Ceiling: 9000
Heat Index: 92°   Visibility: 7mi
Dew Point: 75°   Wind: 6mph
Humidity: 74%   Direction: 120°ESE
Pressure: 29.75"   Gusts: NA
Location:  18.4°N, 88.39°W
Report Text: MMCM 211743Z 12005KT 7SM SCT020 BKN090 29/24 A2975 RMK SLP075 5//// 974 8/520 RTS
Loading
Personal Weather Stations






























Interactive Weather Map New forecast layout! Learn more

10-Day Weather Forecast

Advertisements
Track Severe Weather on mobile